Accueil
METAR-TAF:

METAR-TAF

Aéroports :

Cranfield, Angleterre

latitude: 52-04N, longitude: 000-37W, altitude: 111 m

Observation

Le bulletin a été fait il y a 3 heures et 11 minutes, à 17:50 UTC
Vent 9 kt de est/sud-est
Température 3°C
Humidité 100%
Pression 1016 hPa
Visibilité: 8000 m

METAR: EGTC 211750Z 11009KT 8000 NSC 03/03 Q1016

Heure: 21:01 (21:01 UTC)

Prévision

Le bulletin a été fait il y a 4 heures et 19 minutes, à 16:42 UTC
Prévision valable du 21 à 16 UTC au 21 à 19 UTC
Vent 10 kt de sud-est
Visibilité: 8000 m
Quelques nuages à une hauteur de 3000 ft
Probabilité 40% :
Temporairement
du 21 à 16 UTC au 21 à 19 UTC
Visibilité 10 km ou plus

TAF: EGTC 211642Z 2116/2119 13010KT 8000 FEW030 PROB40 TEMPO 2116/2119 9999

Observations et prévisions météorologiques de plus de 4000 aéroports (messages METAR et TAF).

Les stations disponibles sont représentées par des disques jaunes et rouges sur la carte.

Passer la souris dessus pour voir le nom de la station.

Cliquer dessus pour voir les observations et prévisions météorologiques.

Pour changer de carte: cliquez sur les boutons verts avec une croix noire pour zoomer, sur le bouton vert avec un tiret pour effectuer un zoom arrière, ou sur les flèches vertes pour les cartes adjacentes.


METAR-TAF: